Tiempo atmosférico en la estación meteorológica de Mutriku, Gipuzkoa (150 m.)



Fecha
DESCASC
Temp. máxima en grados centígrados (hora)
DESCASC
Temp. mínima en grados centígrados (hora)
DESCASC
Temp. media en grados centígrados
DESCASC
Racha de viento máxima en m/sg (hora)
DESCASC
Velocidad máxima media en intervalos de 10 minutos(hora)
DESCASC
Precipitaciones diarias en mm
DESCASC
Precipitaciones de 00:00 a 06:00 en mm
DESCASC
Precipitaciones de 06:00 a 12:00 en mm
DESCASC
Precipitaciones de 12:00 a 18:00 en mm
DESCASC
Precipitaciones de 18:00 a 24:00 en mm
DESCASC
19-09-2019 21.9 (15:20) 16.6 (06:00) 19.3 5.83 (00:30) 4.44 (08:20) 0 0 0 0 0
18-09-2019 22.5 (14:20) 17.4 (22:50) 19.9 7.5 (15:10) 3.89 (01:00) 0 0 0 0 0
17-09-2019 24.4 (14:50) 18.9 (00:00) 21.6 3.33 (22:10) 2.22 (22:10) 0 0 0 0 0
16-09-2019 25.1 (17:00) 18.4 (00:00) 21.8 5.28 (00:10) 2.78 (14:10) 2.6 0.6 2 0 0
15-09-2019 24.1 (15:20) 19.5 (00:00) 21.8 10.56 (16:20) 5 (16:40) 2.4 0 0 0.4 2
14-09-2019 24.9 (13:50) 17.5 (00:00) 21.2 4.17 (13:10) 2.78 (07:30) 0 0 0 0 0
13-09-2019 21.6 (15:20) 15.8 (00:00) 18.7 3.61 (13:30) 2.22 (05:00) 0 0 0 0 0
12-09-2019 20.6 (13:50) 15 (00:00) 17.8 4.72 (16:20) 2.78 (11:40) 0 0 0 0 0
11-09-2019 22.3 (14:10) 17.1 (00:00) 19.7 11.11 (04:40) 5.83 (00:30) 0.4 0.4 0 0 0
10-09-2019 18.3 (15:50) 11.8 (08:10) 15 13.61 (01:10) 8.61 (00:10) 11.2 4.4 6.4 0.4 0
09-09-2019 20.1 (16:50) 13.5 (06:10) 16.8 17.78 (23:50) 9.72 (23:59) 0.6 0 0 0 0.6
08-09-2019 20.8 (16:30) 14.5 (00:00) 17.6 6.67 (03:20) 4.17 (02:10) 6.8 4.8 1.8 0.2 0
07-09-2019 21.4 (16:00) 14.5 (00:00) 17.9 6.11 (14:00) 3.33 (09:30) 0 0 0 0 0
06-09-2019 20.4 (15:00) 15.6 (00:00) 18 7.5 (00:20) 3.89 (16:00) 0 0 0 0 0
05-09-2019 19.6 (12:20) 15.2 (00:00) 17.4 8.33 (10:50) 4.72 (12:00) 5 4 0.6 0.4 0
04-09-2019 22.8 (15:50) 17.2 (00:00) 20 8.89 (14:10) 4.17 (15:30) 0 0 0 0 0
03-09-2019 23.1 (19:10) 16.1 (00:00) 19.6 4.44 (00:20) 1.94 (15:10) 0 0 0 0 0
02-09-2019 22 (16:40) 15.6 (00:00) 18.8 6.67 (22:50) 3.33 (10:20) 0.2 0.2 0 0 0
01-09-2019 22.9 (14:40) 17.2 (00:00) 20.1 12.22 (17:20) 6.67 (17:00) 0.2 0 0 0 0.2
31-08-2019 22.2 (10:40) 19.7 (00:00) 21 4.72 (21:30) 2.5 (20:40) 0 0 0 0 0
30-08-2019 24.7 (14:20) 19.5 (00:00) 22.1 4.17 (14:20) 2.78 (16:00) 0 0 0 0 0
29-08-2019 24.4 (14:20) 19.6 (00:00) 22 5.83 (00:30) 3.89 (00:30) 0 0 0 0 0
28-08-2019 25.2 (14:50) 19.7 (00:00) 22.5 4.72 (15:00) 3.33 (11:50) 0 0 0 0 0
27-08-2019 23.5 (13:10) 18 (00:00) 20.8 8.89 (00:20) 5 (00:20) 0.2 0.2 0 0 0
26-08-2019 24.1 (13:30) 18.9 (00:00) 21.5 11.11 (23:59) 6.39 (23:59) 10 0 0 0 10
25-08-2019 23.6 (16:20) 18.6 (00:00) 21.1 6.39 (00:20) 3.61 (00:20) 0 0 0 0 0
24-08-2019 25.7 (02:20) 19.1 (00:00) 22.4 9.44 (18:50) 4.72 (19:00) 0 0 0 0 0
23-08-2019 29.6 (18:20) 17.8 (00:00) 23.7 5.28 (16:20) 3.89 (16:20) 0 0 0 0 0
22-08-2019 23.6 (18:00) 17.6 (00:00) 20.6 4.72 (06:40) 3.33 (05:50) 0 0 0 0 0
21-08-2019 23.8 (19:10) 16.6 (00:00) 20.2 6.39 (02:50) 3.33 (03:00) 0 0 0 0 0

Gráficas

Temp. máximas Temp. mínimas Temp. medias Precipitaciones Rachas de viento máximas Velocidades máximas media en intervalos de 10 minutos

Datos horarios

Fecha y hora oficial Temperatura (ºC) Velocidad del viento (km/h) Dirección del viento Racha (km/h) Dirección de racha Precipitación (mm) Presión (hPa) Tendencia (hPa) Humedad (%)
2019-09-19 23:00:00 17.2 0 Calma 3 Sudeste 0 -- -- 84
2019-09-19 22:00:00 17.2 2 Sudeste 6 Este 0 -- -- 83
2019-09-19 21:00:00 17.7 2 Noroeste 6 Sudoeste 0 -- -- 81
2019-09-19 20:00:00 19.4 0 Calma 6 Este 0 -- -- 75
2019-09-19 19:00:00 20.5 4 Este 9 Este 0 -- -- 72
2019-09-19 18:00:00 20.6 4 Nordeste 9 Norte 0 -- -- 71
2019-09-19 17:00:00 21 5 Nordeste 10 Norte 0 -- -- 70
2019-09-19 16:00:00 21.7 4 Norte 10 Noroeste 0 -- -- 72
2019-09-19 15:00:00 21.6 4 Norte 14 Noroeste 0 -- -- 74
2019-09-19 14:00:00 21.4 5 Noroeste 13 Oeste 0 -- -- 79
2019-09-19 13:00:00 21.2 5 Noroeste 12 Oeste 0 -- -- 79
2019-09-19 12:00:00 21 4 Norte 13 Oeste 0 -- -- 76
2019-09-19 11:00:00 20.4 7 Oeste 17 Sudoeste 0 -- -- 77
2019-09-19 10:00:00 18.8 12 Sudoeste 20 Sudoeste 0 -- -- 82
2019-09-19 09:00:00 17.4 13 Sudoeste 20 Sudoeste 0 -- -- 86
2019-09-19 08:00:00 16.8 15 Sudoeste 20 Sudoeste 0 -- -- 88
2019-09-19 07:00:00 16.9 12 Sudoeste 17 Sudoeste 0 -- -- 88
2019-09-19 06:00:00 16.6 12 Sudoeste 20 Sudoeste 0 -- -- 90
2019-09-19 05:00:00 16.9 14 Sudoeste 18 Sudoeste 0 -- -- 90
2019-09-19 04:00:00 17 8 Sudoeste 15 Sudoeste 0 -- -- 88
2019-09-19 03:00:00 17.1 9 Sudoeste 16 Sudoeste 0 -- -- 88
2019-09-19 02:00:00 17.3 9 Sudoeste 17 Sudoeste 0 -- -- 88
2019-09-19 01:00:00 17.6 9 Sudoeste 21 Oeste 0 -- -- 89
2019-09-19 00:00:00 17.5 5 Oeste 10 Oeste 0 -- -- 92
2019-09-18 23:00:00 17.4 8 Oeste 11 Oeste 0 -- -- 93
2019-09-18 22:00:00 17.8 4 Oeste 8 Noroeste 0 -- -- 91
2019-09-18 21:00:00 18.3 3 Sudoeste 13 Oeste 0 -- -- 91
2019-09-18 20:00:00 18.9 6 Noroeste 10 Oeste 0 -- -- 89
2019-09-18 19:00:00 19.4 3 Noroeste 12 Noroeste 0 -- -- 87
2019-09-18 18:00:00 19.7 3 Noroeste 18 Noroeste 0 -- -- 87
2019-09-18 17:00:00 20.1 11 Noroeste 22 Noroeste 0 -- -- 87
2019-09-18 16:00:00 20.8 7 Noroeste 27 Noroeste 0 -- -- 86
2019-09-18 15:00:00 21.6 14 Noroeste 24 Noroeste 0 -- -- 86
2019-09-18 14:00:00 22 4 Noroeste 18 Sudoeste 0 -- -- 81
2019-09-18 13:00:00 21.6 12 Oeste 18 Oeste 0 -- -- 79
2019-09-18 12:00:00 21.1 4 Oeste 21 Oeste 0 -- -- 81
2019-09-18 11:00:00 20.2 12 Sudoeste 20 Sudoeste 0 -- -- 83
2019-09-18 10:00:00 20 12 Sudoeste 20 Sudoeste 0 -- -- 84
2019-09-18 09:00:00 19.2 11 Sudoeste 17 Sudoeste 0 -- -- 86
2019-09-18 08:00:00 18.8 8 Oeste 12 Sudoeste 0 -- -- 85
2019-09-18 07:00:00 18.8 4 Sudoeste 12 Sudoeste 0 -- -- 85
2019-09-18 06:00:00 19.4 3 Sudoeste 17 Oeste 0 -- -- 83
2019-09-18 05:00:00 19.6 10 Oeste 23 Oeste 0 -- -- 83
2019-09-18 04:00:00 19.2 14 Sudoeste 23 Sudoeste 0 -- -- 87
2019-09-18 03:00:00 19 13 Sudoeste 17 Sudoeste 0 -- -- 87
2019-09-18 02:00:00 19.2 13 Sudoeste 20 Sudoeste 0 -- -- 86
2019-09-18 01:00:00 19.2 14 Sudoeste 22 Sudoeste 0 -- -- 88
2019-09-18 00:00:00 18.9 8 Sudoeste 12 Sudoeste 0 -- -- 93
2019-09-17 23:00:00 19.1 5 Oeste 12 Oeste 0 -- -- 94
2019-09-17 22:00:00 19.4 6 Oeste 10 Oeste 0 -- -- 93
2019-09-17 21:00:00 20.3 6 Oeste 9 Oeste 0 -- -- 92
2019-09-15 18:00:00 22 8 Sudoeste 35 Sudoeste 0.2 -- -- 65
2019-09-15 17:00:00 22.3 17 Sudoeste 38 Sur 0.2 -- -- 63
2019-09-15 16:00:00 23.4 0 Calma 8 Nordeste 0 -- -- 70
2019-09-15 15:00:00 23.7 3 Norte 6 Nordeste 0 -- -- 72
2019-09-15 14:00:00 23.1 4 Noroeste 8 Norte 0 -- -- 78
2019-09-15 13:00:00 23.5 4 Norte 8 Este 0 -- -- 70
2019-09-15 12:00:00 23.6 2 Nordeste 8 Nordeste 0 -- -- 73
2019-09-15 11:00:00 23 3 Sudoeste 13 Sudeste 0 -- -- 67
2019-09-15 10:00:00 21.5 0 Calma 5 Oeste 0 -- -- 76
2019-09-15 09:00:00 20.5 3 Sur 6 Sudeste 0 -- -- 79
2019-09-15 08:00:00 20.7 2 Noroeste 6 Sudoeste 0 -- -- 75
2019-09-15 07:00:00 20.3 3 Sudoeste 7 Oeste 0 -- -- 77
2019-09-15 06:00:00 20.1 0 Calma 4 Este 0 -- -- 78
2019-09-15 05:00:00 19.9 3 Este 5 Sudeste 0 -- -- 78
2019-09-15 04:00:00 19.8 0 Calma 6 Sudoeste 0 -- -- 78
2019-09-15 03:00:00 20 3 Oeste 6 Sudoeste 0 -- -- 77
2019-09-15 02:00:00 20.2 3 Oeste 5 Sur 0 -- -- 76
2019-09-15 01:00:00 20.7 2 Sudoeste 5 Este 0 -- -- 74
2019-09-15 00:00:00 20.9 2 Sur 5 Sudoeste 0 -- -- 72
2019-09-14 23:00:00 20.4 2 Sudeste 5 Sudoeste 0 -- -- 71
2019-09-14 22:00:00 20.8 0 Calma 10 Sudeste 0 -- -- 69
2019-09-14 21:00:00 20.6 6 Sudeste 10 Este 0 -- -- 72
2019-09-14 20:00:00 21.2 6 Este 11 Este 0 -- -- 72
2019-09-14 19:00:00 22.5 5 Sudeste 10 Sudeste 0 -- -- 66
2019-09-14 18:00:00 22.3 6 Este 12 Nordeste 0 -- -- 72
2019-09-14 17:00:00 23.4 7 Sudeste 11 Nordeste 0 -- -- 75
2019-09-14 16:00:00 24.5 6 Este 11 Este 0 -- -- 66
2019-09-14 15:00:00 24.3 5 Este 15 Este 0 -- -- 66
2019-09-14 14:00:00 24.9 10 Este 15 Este 0 -- -- 69
2019-09-14 13:00:00 24 9 Este 14 Este 0 -- -- 75
2019-09-14 12:00:00 23.5 4 Este 8 Este 0 -- -- 72
2019-09-14 11:00:00 22.4 4 Nordeste 7 Nordeste 0 -- -- 74
2019-09-14 10:00:00 21.8 0 Calma 10 Sur 0 -- -- 75
2019-09-14 09:00:00 19.4 0 Calma 15 Sudeste 0 -- -- 81
2019-09-14 08:00:00 18.9 6 Este 15 Sudoeste 0 -- -- 84
2019-09-14 07:00:00 19.5 6 Sudoeste 12 Sur 0 -- -- 75
2019-09-14 06:00:00 -- -- -- -- -- -- -- -- --
2019-09-14 05:00:00 19.3 3 Nordeste 5 Sudeste 0 -- -- 79
2019-09-14 04:00:00 18.8 4 Sur 6 Sudeste 0 -- -- 80
2019-09-14 03:00:00 18.8 0 Calma 5 Sudoeste 0 -- -- 77
2019-09-14 02:00:00 19.5 4 Sudoeste 10 Sudoeste 0 -- -- 69
2019-09-14 01:00:00 17.6 0 Calma 5 Sudeste 0 -- -- 91
2019-09-14 00:00:00 17.6 0 Calma 5 Oeste 0 -- -- 90
2019-09-13 23:00:00 17.4 5 Sudoeste 9 Sudoeste 0 -- -- 93
2019-09-13 22:00:00 18.2 0 Calma 6 Oeste 0 -- -- 93
2019-09-13 21:00:00 18.4 3 Oeste 5 Noroeste 0 -- -- 91
2019-09-13 20:00:00 19.5 0 Calma 4 Nordeste 0 -- -- 88
2019-09-13 19:00:00 20.1 2 Noroeste 6 Noroeste 0 -- -- 85
2019-09-13 18:00:00 20.7 3 Nordeste 8 Nordeste 0 -- -- 83
2019-09-13 17:00:00 20.9 2 Norte 9 Oeste 0 -- -- 84
2019-09-13 16:00:00 21.1 4 Noroeste 8 Nordeste 0 -- -- 82
2019-09-13 15:00:00 21.4 3 Noroeste 9 Norte 0 -- -- 81
2019-09-13 14:00:00 21.2 3 Norte 13 Norte 0 -- -- 80
2019-09-13 13:00:00 20.9 4 Noroeste 11 Norte 0 -- -- 81
2019-09-13 12:00:00 20.4 5 Norte 9 Nordeste 0 -- -- 80
2019-09-13 11:00:00 19.4 3 Noroeste 8 Oeste 0 -- -- 83
2019-09-13 10:00:00 18.9 3 Oeste 6 Sudoeste 0 -- -- 83
2019-09-13 09:00:00 17.2 5 Sudoeste 9 Sudoeste 0 -- -- 87
2019-09-13 08:00:00 16.3 6 Sudoeste 12 Sudoeste 0 -- -- 89
2019-09-13 07:00:00 16.3 5 Sudoeste 9 Sudoeste 0 -- -- 88
2019-09-13 06:00:00 16.3 7 Sudoeste 10 Oeste 0 -- -- 86
2019-09-13 05:00:00 16.2 8 Oeste 10 Oeste 0 -- -- 79
2019-09-13 04:00:00 16.6 5 Sudoeste 8 Oeste 0 -- -- 75
2019-09-13 03:00:00 16.4 5 Oeste 6 Oeste 0 -- -- 76
2019-09-13 02:00:00 16.6 2 Este 6 Sudoeste 0 -- -- 80
2019-09-13 01:00:00 16.5 4 Sudoeste 6 Sudoeste 0 -- -- 74
2019-09-13 00:00:00 16.3 3 Oeste 4 Oeste 0 -- -- 85
2019-09-12 23:00:00 16.3 3 Sudeste 6 Sudeste 0 -- -- 87
2019-09-12 22:00:00 16.7 4 Sudeste 9 Sur 0 -- -- 87
2019-09-12 21:00:00 17.2 3 Sudeste 9 Este 0 -- -- 81
2019-09-12 20:00:00 19.5 4 Sudeste 6 Sudeste 0 -- -- 72
2019-09-12 19:00:00 20.4 3 Nordeste 7 Este 0 -- -- 67
2019-09-12 18:00:00 20.4 3 Este 10 Sudeste 0 -- -- 65
2019-09-12 17:00:00 20.2 6 Nordeste 17 Este 0 -- -- 69
2019-09-12 16:00:00 20.3 6 Nordeste 14 Nordeste 0 -- -- 68
2019-09-12 15:00:00 20 9 Nordeste 15 Nordeste 0 -- -- 62
2019-09-12 14:00:00 20.5 7 Nordeste 15 Este 0 -- -- 70
2019-09-12 13:00:00 20.1 9 Nordeste 16 Este 0 -- -- 73
2019-09-12 12:00:00 20.1 9 Este 16 Este 0 -- -- 70
2019-09-12 11:00:00 19.7 8 Este 14 Este 0 -- -- 74
2019-09-12 10:00:00 18.5 8 Este 14 Este 0 -- -- 77
2019-09-12 09:00:00 16.1 5 Sur 10 Sur 0 -- -- 86
2019-09-12 08:00:00 15.1 7 Sur 12 Sur 0 -- -- 89
2019-09-12 07:00:00 15.1 3 Sur 8 Sur 0 -- -- 88
2019-09-12 06:00:00 15.5 6 Sur 9 Sur 0 -- -- 88
2019-09-12 05:00:00 16 5 Sudeste 11 Sudeste 0 -- -- 87
2019-09-12 04:00:00 16.5 6 Sudeste 13 Este 0 -- -- 86
2019-09-12 03:00:00 16.9 5 Este 17 Este 0 -- -- 86
2019-09-12 02:00:00 17.1 6 Nordeste 15 Nordeste 0 -- -- 82
2019-09-12 01:00:00 17.1 5 Este 14 Nordeste 0 -- -- 82
2019-09-12 00:00:00 17.1 4 Este 16 Este 0 -- -- 82
2019-09-11 23:00:00 17.4 7 Este 18 Nordeste 0 -- -- 81
2019-09-11 22:00:00 17.7 7 Nordeste 21 Nordeste 0 -- -- 81
2019-09-11 21:00:00 17.5 2 Sudoeste 14 Norte 0 -- -- 79
2019-09-11 20:00:00 18 4 Noroeste 13 Noroeste 0 -- -- 75
2019-09-11 19:00:00 18.9 4 Oeste 15 Noroeste 0 -- -- 74
2019-09-11 18:00:00 19.3 10 Norte 22 Norte 0 -- -- 69
2019-09-11 17:00:00 20.1 7 Noroeste 18 Nordeste 0 -- -- 70
2019-09-11 16:00:00 20.8 5 Norte 14 Norte 0 -- -- 66
2019-09-11 15:00:00 21.5 4 Norte 14 Nordeste 0 -- -- 62
2019-09-11 14:00:00 22 3 Noroeste 12 Norte 0 -- -- 67
2019-09-11 13:00:00 21 4 Oeste 17 Este 0 -- -- 73
2019-09-11 12:00:00 20.1 6 Noroeste 30 Noroeste 0 -- -- 72
2019-09-11 11:00:00 19.4 15 Noroeste 26 Noroeste 0 -- -- 76
2019-09-11 10:00:00 19.3 7 Noroeste 22 Norte 0 -- -- 76
2019-09-11 09:00:00 18.2 10 Noroeste 25 Noroeste 0 -- -- 80
2019-09-11 08:00:00 18 12 Noroeste 27 Norte 0 -- -- 80
2019-09-11 07:00:00 17.9 12 Noroeste 27 Norte 0 -- -- 81
2019-09-11 06:00:00 17.9 14 Noroeste 35 Norte 0 -- -- 82
2019-09-11 05:00:00 17.9 16 Noroeste 40 Noroeste 0 -- -- 82
2019-09-11 04:00:00 17.8 18 Noroeste 37 Norte 0 -- -- 79
2019-09-11 03:00:00 17.9 17 Noroeste 34 Noroeste 0 -- -- 80
2019-09-11 02:00:00 18 17 Noroeste 35 Norte 0 -- -- 80
2019-09-11 01:00:00 17.6 15 Noroeste 39 Noroeste 0.4 -- -- 80
2019-09-11 00:00:00 17.5 16 Noroeste 36 Noroeste 0 -- -- 74
2019-09-10 23:00:00 17.1 12 Noroeste 29 Norte 0 -- -- 75
2019-09-10 22:00:00 16.7 10 Noroeste 29 Norte 0 -- -- 75
2019-09-10 21:00:00 16.6 13 Noroeste 28 Norte 0 -- -- 72
2019-09-10 20:00:00 16.4 15 Noroeste 31 Norte 0 -- -- 71
2019-09-10 19:00:00 16.7 12 Noroeste 32 Oeste 0 -- -- 73
2019-09-10 18:00:00 16.9 10 Noroeste 31 Norte 0 -- -- 75
2019-09-10 17:00:00 17.4 17 Noroeste 34 Norte 0 -- -- 72
2019-09-10 16:00:00 17.9 13 Noroeste 36 Noroeste 0 -- -- 76
2019-09-10 15:00:00 17 10 Noroeste 42 Norte 0 -- -- 73
2019-09-10 14:00:00 15.8 8 Noroeste 32 Oeste 0.4 -- -- 83
2019-09-10 13:00:00 16.5 14 Noroeste 39 Noroeste 0 -- -- 83
2019-09-10 12:00:00 15.3 18 Noroeste 39 Noroeste 0.2 -- -- 81
2019-09-10 11:00:00 13.9 18 Oeste 46 Oeste 1.8 -- -- 88
2019-09-10 10:00:00 13.1 26 Oeste 45 Sudoeste 0.6 -- -- 89
2019-09-10 09:00:00 12.3 21 Oeste 46 Oeste 2.4 -- -- 92
2019-09-10 08:00:00 11.9 24 Oeste 42 Oeste 1.4 -- -- 90
2019-09-10 07:00:00 12.7 25 Oeste 40 Oeste 0 -- -- 82
2019-09-10 06:00:00 13.3 24 Oeste 40 Sudoeste 0.8 -- -- 83
2019-09-10 05:00:00 13.3 25 Oeste 42 Oeste 0 -- -- 86
2019-09-10 04:00:00 13.6 22 Oeste 46 Oeste 0.2 -- -- 86
2019-09-10 03:00:00 13.9 23 Oeste 38 Oeste 0.6 -- -- 87
2019-09-10 02:00:00 13.8 23 Oeste 49 Oeste 1.8 -- -- 88
2019-09-10 01:00:00 13.9 24 Oeste 43 Noroeste 1 -- -- 91
2019-09-10 00:00:00 14.9 35 Oeste 64 Noroeste 0.6 -- -- 88
2019-09-09 23:00:00 17 17 Oeste 34 Sudoeste 0 -- -- 71
2019-09-09 22:00:00 17.1 12 Oeste 26 Oeste 0 -- -- 75
2019-09-09 21:00:00 17 9 Sudoeste 17 Sudoeste 0 -- -- 72
2019-09-09 20:00:00 17.6 2 Sudoeste 5 Sudeste 0 -- -- 71
2019-09-09 19:00:00 18.1 3 Sudoeste 9 Noroeste 0 -- -- 69
2019-09-09 18:00:00 19 2 Noroeste 12 Noroeste 0 -- -- 64
2019-09-09 17:00:00 19.9 4 Norte 13 Noroeste 0 -- -- 59
2019-09-09 16:00:00 19.9 4 Noroeste 14 Nordeste 0 -- -- 61
2019-09-09 15:00:00 19.4 4 Noroeste 13 Norte 0 -- -- 61
2019-09-09 14:00:00 19.4 5 Norte 10 Nordeste 0 -- -- 64
2019-09-09 13:00:00 18.7 4 Noroeste 10 Noroeste 0 -- -- 66
2019-09-09 12:00:00 17.6 6 Noroeste 13 Oeste 0 -- -- 69
2019-09-09 11:00:00 17.3 7 Oeste 14 Oeste 0 -- -- 68
2019-09-09 10:00:00 15.9 8 Sudoeste 15 Sudoeste 0 -- -- 74
2019-09-09 09:00:00 15.1 10 Sudoeste 13 Sudoeste 0 -- -- 74
2019-09-09 08:00:00 13.7 7 Sudoeste 11 Sudoeste 0 -- -- 76
2019-09-09 07:00:00 13.5 8 Sudoeste 15 Sudoeste 0 -- -- 77
2019-09-09 06:00:00 13.7 6 Sudoeste 15 Sur 0 -- -- 79
2019-09-09 05:00:00 14.3 7 Sudoeste 11 Sudoeste 0 -- -- 77
2019-09-09 04:00:00 14.9 5 Sudoeste 8 Sudoeste 0 -- -- 75
2019-09-09 03:00:00 15.1 5 Sudoeste 8 Sudoeste 0 -- -- 75
2019-09-09 02:00:00 15.1 3 Sudoeste 5 Sur 0 -- -- 76
2019-09-09 01:00:00 15.4 2 Sudoeste 8 Sur 0 -- -- 75
2019-09-09 00:00:00 15.4 4 Sudeste 5 Sudeste 0 -- -- 77
2019-09-08 23:00:00 15.4 4 Este 12 Este 0 -- -- 76
2019-09-08 22:00:00 15.8 6 Este 12 Este 0 -- -- 76
2019-09-08 21:00:00 16.5 3 Sudeste 10 Nordeste 0 -- -- 71
2019-09-08 20:00:00 18.7 4 Nordeste 15 Nordeste 0 -- -- 64
2019-09-08 19:00:00 19.4 8 Nordeste 20 Nordeste 0 -- -- 61
2019-09-08 18:00:00 20.1 8 Nordeste 16 Nordeste 0 -- -- 59
2019-09-08 17:00:00 20.7 6 Nordeste 13 Este 0 -- -- 66
2019-09-08 16:00:00 20.2 7 Nordeste 14 Nordeste 0 -- -- 68
2019-09-08 15:00:00 20.1 7 Nordeste 14 Nordeste 0 -- -- 69
2019-09-08 14:00:00 19.7 5 Nordeste 10 Norte 0.2 -- -- 75
2019-09-08 13:00:00 17.9 3 Norte 13 Oeste 0 -- -- 78
2019-09-08 12:00:00 18.6 5 Noroeste 14 Oeste 0 -- -- 86
2019-09-08 11:00:00 17 7 Oeste 10 Sudoeste 0 -- -- 95
2019-09-08 10:00:00 15.8 6 Sudoeste 13 Oeste 0 -- -- 96
2019-09-08 09:00:00 15 9 Sudoeste 18 Sudoeste 0.4 -- -- 96
2019-09-08 08:00:00 14.6 10 Sudoeste 18 Sudoeste 0.6 -- -- 96
2019-09-08 07:00:00 14.5 12 Sudoeste 18 Sudoeste 0.8 -- -- 95
2019-09-08 06:00:00 14.6 9 Sudoeste 15 Sudoeste 0.4 -- -- 94
2019-09-08 05:00:00 14.8 12 Sudoeste 18 Sudoeste 0 -- -- 94
2019-09-08 04:00:00 14.6 12 Sudoeste 24 Sudoeste 0.8 -- -- 95
2019-09-08 03:00:00 14.6 12 Sudoeste 21 Sudoeste 1.6 -- -- 95
2019-09-08 02:00:00 14.7 15 Sudoeste 20 Sudoeste 1.4 -- -- 94
2019-09-08 01:00:00 15.7 9 Sudoeste 15 Oeste 0.6 -- -- 90
2019-09-08 00:00:00 17.2 9 Oeste 16 Oeste 0 -- -- 76
2019-09-07 23:00:00 17.2 10 Oeste 15 Oeste 0 -- -- 76
2019-09-07 22:00:00 17.3 11 Oeste 17 Oeste 0 -- -- 74
2019-09-07 21:00:00 17.6 9 Oeste 15 Oeste 0 -- -- 72
2019-09-07 20:00:00 18.8 9 Noroeste 15 Noroeste 0 -- -- 67
2019-09-07 19:00:00 19.6 7 Noroeste 17 Noroeste 0 -- -- 66
2019-09-07 18:00:00 20.3 4 Noroeste 13 Oeste 0 -- -- 64
2019-09-07 17:00:00 20.8 4 Norte 12 Norte 0 -- -- 63
2019-09-07 16:00:00 21.4 3 Noroeste 13 Norte 0 -- -- 63
2019-09-07 15:00:00 20.8 4 Noroeste 17 Oeste 0 -- -- 67
2019-09-07 14:00:00 20.1 8 Noroeste 22 Noroeste 0 -- -- 71
2019-09-07 13:00:00 19.8 6 Noroeste 17 Noroeste 0 -- -- 70
2019-09-07 12:00:00 19.3 6 Noroeste 15 Noroeste 0 -- -- 69
2019-09-07 11:00:00 18.5 5 Noroeste 19 Noroeste 0 -- -- 70
2019-09-07 10:00:00 16.4 10 Oeste 16 Oeste 0 -- -- 76
2019-09-07 09:00:00 15.3 9 Oeste 16 Oeste 0 -- -- 78
2019-09-07 08:00:00 14.7 10 Oeste 15 Oeste 0 -- -- 77
2019-09-07 07:00:00 14.7 9 Oeste 14 Oeste 0 -- -- 75
2019-09-07 06:00:00 14.5 9 Oeste 13 Oeste 0 -- -- 75
2019-09-07 05:00:00 14.6 8 Oeste 11 Oeste 0 -- -- 74
2019-09-07 04:00:00 15.2 5 Oeste 11 Noroeste 0 -- -- 72
2019-09-07 03:00:00 15.9 5 Noroeste 18 Norte 0 -- -- 70
2019-09-07 02:00:00 16.4 5 Noroeste 17 Noroeste 0 -- -- 69
2019-09-07 01:00:00 16.5 8 Noroeste 19 Norte 0 -- -- 69
2019-09-07 00:00:00 16.4 6 Noroeste 22 Noroeste 0 -- -- 70
2019-09-06 23:00:00 16.9 4 Noroeste 21 Noroeste 0 -- -- 69
2019-09-06 22:00:00 16.7 9 Noroeste 19 Norte 0 -- -- 67
2019-09-06 21:00:00 17 8 Noroeste 20 Norte 0 -- -- 67
2019-09-06 20:00:00 17.6 4 Oeste 17 Noroeste 0 -- -- 67
2019-09-06 19:00:00 18 4 Noroeste 13 Norte 0 -- -- 64
2019-09-06 18:00:00 19.2 4 Noroeste 24 Nordeste 0 -- -- 59
2019-09-06 17:00:00 19.2 12 Nordeste 27 Nordeste 0 -- -- 60
2019-09-06 16:00:00 18.9 14 Nordeste 24 Nordeste 0 -- -- 62
2019-09-06 15:00:00 20.4 12 Nordeste 21 Nordeste 0 -- -- 60
2019-09-06 14:00:00 19.4 9 Nordeste 15 Nordeste 0 -- -- 68
2019-09-06 13:00:00 19.7 9 Nordeste 17 Nordeste 0 -- -- 70
2019-09-06 12:00:00 19.4 11 Este 17 Este 0 -- -- 72
2019-09-06 11:00:00 19.1 8 Nordeste 18 Este 0 -- -- 70
2019-09-06 10:00:00 18.3 12 Este 18 Este 0 -- -- 69
2019-09-06 09:00:00 16.6 8 Este 21 Este 0 -- -- 77
2019-09-06 08:00:00 15.6 7 Este 19 Este 0 -- -- 77
2019-09-06 07:00:00 16.6 10 Este 23 Este 0 -- -- 70
2019-09-06 06:00:00 16.8 5 Nordeste 18 Noroeste 0 -- -- 73
2019-09-06 05:00:00 16.5 5 Oeste 17 Noroeste 0 -- -- 72
2019-09-06 04:00:00 16.3 6 Noroeste 18 Oeste 0 -- -- 66
2019-09-06 03:00:00 16.8 5 Sudoeste 26 Nordeste 0 -- -- 69
2019-09-06 02:00:00 16.9 11 Nordeste 27 Nordeste 0 -- -- 69
2019-09-06 01:00:00 16.7 7 Sur 27 Este 0 -- -- 69
2019-09-06 00:00:00 16.7 5 Sudeste 15 Sudeste 0 -- -- 70
2019-09-05 23:00:00 16.7 5 Sur 17 Norte 0 -- -- 71
2019-09-05 22:00:00 16.3 6 Sudoeste 13 Sudoeste 0 -- -- 79
2019-09-05 21:00:00 16 7 Oeste 11 Oeste 0 -- -- 82
2019-09-05 20:00:00 17.7 2 Noroeste 8 Oeste 0 -- -- 75
2019-09-05 19:00:00 17.7 4 Norte 12 Nordeste 0 -- -- 75
2019-09-05 18:00:00 18.7 4 Nordeste 10 Nordeste 0 -- -- 68
2019-09-05 17:00:00 19.5 5 Este 11 Oeste 0 -- -- 65
2019-09-05 16:00:00 18.3 5 Este 16 Sudeste 0 -- -- 77
2019-09-05 15:00:00 15.7 4 Este 12 Noroeste 0.2 -- -- 90
2019-09-05 14:00:00 16.6 3 Noroeste 24 Este 0.2 -- -- 81
2019-09-05 13:00:00 18.6 11 Este 24 Este 0 -- -- 68
2019-09-05 12:00:00 18.8 17 Este 27 Sudeste 0 -- -- 72
2019-09-05 11:00:00 18.2 15 Este 30 Norte 0 -- -- 80
2019-09-05 10:00:00 16.6 6 Oeste 27 Oeste 0 -- -- 80
2019-09-05 09:00:00 15.5 4 Oeste 27 Noroeste 0.6 -- -- 89
2019-09-05 08:00:00 16.3 7 Noroeste 15 Oeste 0 -- -- 75
2019-09-05 07:00:00 16.8 6 Noroeste 27 Norte 0 -- -- 73
2019-09-05 06:00:00 17.2 10 Noroeste 22 Nordeste 0 -- -- 78
2019-09-05 05:00:00 17 7 Noroeste 27 Norte 0 -- -- 75
2019-09-05 04:00:00 16.6 14 Noroeste 28 Noroeste 0.4 -- -- 86
2019-09-05 03:00:00 16.2 5 Norte 18 Nordeste 3.2 -- -- 94
2019-09-05 02:00:00 16.1 8 Sudoeste 22 Oeste 0.4 -- -- 89
2019-09-05 01:00:00 18 14 Oeste 26 Oeste 0 -- -- 75
2019-09-05 00:00:00 17.8 14 Oeste 22 Sudoeste 0 -- -- 78
2019-09-04 23:00:00 18 13 Oeste 23 Oeste 0 -- -- 78
2019-09-04 22:00:00 18.4 10 Oeste 18 Oeste 0 -- -- 77
2019-09-04 21:00:00 18.9 7 Noroeste 19 Oeste 0 -- -- 75
2019-09-04 20:00:00 19.8 8 Noroeste 18 Norte 0 -- -- 71
2019-09-04 19:00:00 21 7 Noroeste 22 Noroeste 0 -- -- 72
2019-09-04 18:00:00 21.1 7 Noroeste 20 Norte 0 -- -- 72
2019-09-04 17:00:00 22 6 Noroeste 19 Norte 0 -- -- 71
2019-09-04 16:00:00 22.8 8 Noroeste 27 Oeste 0 -- -- 69
2019-09-04 15:00:00 22.1 12 Noroeste 32 Noroeste 0 -- -- 75
2019-09-04 14:00:00 22 11 Noroeste 29 Noroeste 0 -- -- 76
2019-09-04 13:00:00 21.6 10 Noroeste 23 Oeste 0 -- -- 77
2019-09-04 12:00:00 21.4 8 Noroeste 17 Noroeste 0 -- -- 76
2019-09-04 11:00:00 20.4 9 Oeste 13 Oeste 0 -- -- 78
2019-09-04 10:00:00 18.9 7 Oeste 12 Oeste 0 -- -- 82
2019-09-04 09:00:00 18.1 7 Oeste 10 Sudoeste 0 -- -- 83
2019-09-04 08:00:00 17.4 6 Sudoeste 8 Sudoeste 0 -- -- 83
2019-09-04 07:00:00 17.5 6 Sudoeste 13 Sudoeste 0 -- -- 81
2019-09-04 06:00:00 17.5 10 Sudoeste 17 Sudoeste 0 -- -- 79
2019-09-04 05:00:00 17.4 11 Sudoeste 16 Sudoeste 0 -- -- 78
2019-09-04 04:00:00 17.3 6 Sudoeste 11 Sudoeste 0 -- -- 78
2019-09-04 03:00:00 17.6 6 Sudoeste 8 Sudoeste 0 -- -- 77
2019-09-04 02:00:00 17.9 4 Sur 8 Sur 0 -- -- 73
2019-09-04 01:00:00 17.8 5 Sur 9 Sur 0 -- -- 69
2019-09-04 00:00:00 17.7 6 Sur 9 Sur 0 -- -- 67
2019-09-03 23:00:00 17.6 5 Sur 9 Sur 0 -- -- 66
2019-09-03 22:00:00 18.1 6 Sur 8 Sur 0 -- -- 66
2019-09-03 21:00:00 19.4 5 Sudeste 8 Sudeste 0 -- -- 61
2019-09-03 20:00:00 22.3 4 Sudeste 8 Sudeste 0 -- -- 55
2019-09-03 19:00:00 22.8 4 Este 6 Este 0 -- -- 59
2019-09-03 18:00:00 21.5 3 Nordeste 9 Norte 0 -- -- 64
2019-09-03 17:00:00 21.4 5 Nordeste 9 Nordeste 0 -- -- 64
2019-09-03 16:00:00 21.2 5 Nordeste 12 Norte 0 -- -- 68
2019-09-03 15:00:00 21.7 6 Nordeste 13 Nordeste 0 -- -- 68
2019-09-03 14:00:00 21.9 5 Nordeste 12 Nordeste 0 -- -- 68
2019-09-03 13:00:00 21.3 4 Norte 11 Norte 0 -- -- 68
2019-09-03 12:00:00 20.9 3 Norte 9 Nordeste 0 -- -- 69
2019-09-03 11:00:00 20.3 5 Nordeste 9 Nordeste 0 -- -- 64
2019-09-03 10:00:00 18.8 0 Calma 5 Oeste 0 -- -- 75
2019-09-03 09:00:00 17.3 3 Sudoeste 6 Sudoeste 0 -- -- 78
2019-09-03 08:00:00 16.1 0 Calma 7 Oeste 0 -- -- 80
2019-09-03 07:00:00 16.4 4 Oeste 6 Sudoeste 0 -- -- 79
2019-09-03 06:00:00 16.4 3 Sudoeste 6 Sudoeste 0 -- -- 81
2019-09-03 05:00:00 16.5 2 Sudoeste 5 Oeste 0 -- -- 81
2019-09-03 04:00:00 16.9 3 Oeste 6 Noroeste 0 -- -- 80
2019-09-03 03:00:00 17.2 0 Calma 10 Este 0 -- -- 80
2019-09-03 02:00:00 17.5 4 Este 13 Este 0 -- -- 78
2019-09-03 01:00:00 17.8 0 Calma 16 Noroeste 0 -- -- 72
2019-09-03 00:00:00 18.4 5 Norte 22 Nordeste 0 -- -- 70
2019-09-02 23:00:00 18.5 9 Nordeste 24 Nordeste 0 -- -- 69
2019-09-02 22:00:00 18.5 5 Este 22 Nordeste 0 -- -- 67
2019-09-02 21:00:00 18.6 5 Nordeste 17 Este 0 -- -- 63
2019-09-02 20:00:00 20.4 5 Nordeste 13 Norte 0 -- -- 61
2019-09-02 19:00:00 21.6 6 Nordeste 14 Nordeste 0 -- -- 57
2019-09-02 18:00:00 21.6 5 Norte 12 Noroeste 0 -- -- 60
2019-09-02 17:00:00 21.9 4 Norte 13 Norte 0 -- -- 62
2019-09-02 16:00:00 21.3 6 Norte 17 Noroeste 0 -- -- 65
2019-09-02 15:00:00 21 8 Norte 20 Norte 0 -- -- 67
2019-09-02 14:00:00 20.8 5 Norte 15 Norte 0 -- -- 64
2019-09-02 13:00:00 20.5 6 Noroeste 17 Nordeste 0 -- -- 64
2019-09-02 12:00:00 19.8 8 Noroeste 17 Oeste 0 -- -- 66
2019-09-02 11:00:00 18.1 8 Oeste 18 Oeste 0 -- -- 73
2019-09-02 10:00:00 17.6 11 Noroeste 18 Oeste 0 -- -- 71
2019-09-02 09:00:00 16.5 7 Sudoeste 15 Oeste 0 -- -- 73
2019-09-02 08:00:00 15.8 8 Sudoeste 14 Noroeste 0 -- -- 74
2019-09-02 07:00:00 16.4 3 Norte 15 Norte 0 -- -- 71
2019-09-02 06:00:00 16.7 4 Norte 16 Norte 0 -- -- 71
2019-09-02 05:00:00 16.1 6 Noroeste 15 Oeste 0.2 -- -- 79
2019-09-02 04:00:00 16.3 4 Noroeste 20 Noroeste 0 -- -- 78
2019-09-02 03:00:00 17.1 6 Noroeste 22 Norte 0 -- -- 76
2019-09-02 02:00:00 17.8 10 Norte 22 Norte 0 -- -- 67
2019-09-02 01:00:00 17.9 9 Noroeste 22 Noroeste 0 -- -- 71
2019-09-02 00:00:00 17.9 9 Noroeste 24 Norte 0 -- -- 71
2019-09-01 23:00:00 17.8 8 Noroeste 19 Noroeste 0 -- -- 74
2019-09-01 22:00:00 17.3 9 Noroeste 27 Noroeste 0 -- -- 85
2019-09-01 21:00:00 17.4 6 Sudoeste 17 Oeste 0 -- -- 89
2019-09-01 20:00:00 17.6 6 Sudeste 26 Nordeste 0.2 -- -- 91
2019-09-01 19:00:00 18.5 6 Sur 35 Nordeste 0 -- -- 86
2019-09-01 18:00:00 19 15 Nordeste 44 Nordeste 0 -- -- 86
2019-09-01 17:00:00 19.9 24 Nordeste 39 Nordeste 0 -- -- 87
2019-09-01 16:00:00 21.8 6 Noroeste 24 Norte 0 -- -- 80
2019-09-01 15:00:00 22.6 3 Noroeste 9 Norte 0 -- -- 72
2019-09-01 14:00:00 22.1 3 Norte 8 Norte 0 -- -- 77
2019-09-01 13:00:00 21.2 3 Noroeste 12 Oeste 0 -- -- 80
2019-09-01 12:00:00 20.9 7 Oeste 10 Oeste 0 -- -- 82
2019-09-01 11:00:00 20.3 0 Calma 6 Nordeste 0 -- -- 77
2019-09-01 10:00:00 19.5 2 Sudoeste 4 Sur 0 -- -- 86
2019-09-01 09:00:00 18.7 0 Calma 14 Sur 0 -- -- 81
2019-09-01 08:00:00 18.3 9 Sur 13 Sur 0 -- -- 85
2019-09-01 07:00:00 18.4 7 Sudoeste 10 Sudoeste 0 -- -- 85
2019-09-01 06:00:00 18.7 2 Sur 5 Sudeste 0 -- -- 85
2019-09-01 05:00:00 18.8 3 Sur 5 Sur 0 -- -- 84
2019-09-01 04:00:00 18.6 3 Sudoeste 6 Sur 0 -- -- 85
2019-09-01 03:00:00 18.5 4 Sur 11 Sur 0 -- -- 87
2019-09-01 02:00:00 18.8 5 Sur 9 Sur 0 -- -- 87
2019-09-01 01:00:00 19.2 3 Sur 4 Sur 0 -- -- 87
2019-09-01 00:00:00 19.8 3 Nordeste 8 Nordeste 0 -- -- 83
2019-08-31 23:00:00 20.1 2 Oeste 17 Nordeste 0 -- -- 87
2019-08-31 22:00:00 20.4 5 Nordeste 17 Nordeste 0 -- -- 87
2019-08-31 21:00:00 20.5 5 Este 17 Nordeste 0 -- -- 88
2019-08-31 20:00:00 20.7 3 Sur 16 Norte 0 -- -- 88
2019-08-31 19:00:00 21.2 3 Oeste 9 Norte 0 -- -- 86
2019-08-31 18:00:00 21.6 2 Noroeste 9 Noroeste 0 -- -- 82
2019-08-31 17:00:00 21.5 3 Noroeste 11 Noroeste 0 -- -- 84
2019-08-31 16:00:00 21.9 4 Noroeste 16 Noroeste 0 -- -- 80
2019-08-31 15:00:00 21.2 6 Noroeste 15 Noroeste 0 -- -- 87
2019-08-31 14:00:00 21.6 5 Noroeste 15 Noroeste 0 -- -- 87
2019-08-31 13:00:00 22 5 Noroeste 10 Noroeste 0 -- -- 83
2019-08-31 12:00:00 21.6 6 Noroeste 12 Noroeste 0 -- -- 85
2019-08-31 11:00:00 21.9 4 Noroeste 10 Noroeste 0 -- -- 85
2019-08-31 10:00:00 21.2 6 Oeste 12 Noroeste 0 -- -- 88
2019-08-31 09:00:00 20.1 4 Oeste 6 Oeste 0 -- -- 91
2019-08-31 08:00:00 19.7 4 Sudoeste 8 Oeste 0 -- -- 90
2019-08-31 07:00:00 19.9 2 Oeste 6 Oeste 0 -- -- 90
2019-08-31 06:00:00 20 0 Calma 6 Sur 0 -- -- 90
2019-08-31 05:00:00 20.1 3 Sudoeste 7 Sudoeste 0 -- -- 88
2019-08-31 04:00:00 20.1 3 Sur 4 Sur 0 -- -- 88
2019-08-31 03:00:00 20.2 3 Sudoeste 8 Sudoeste 0 -- -- 88
2019-08-31 02:00:00 20.3 3 Sudoeste 6 Sudoeste 0 -- -- 89
2019-08-31 01:00:00 20.3 3 Oeste 8 Oeste 0 -- -- 90
2019-08-31 00:00:00 20.2 4 Oeste 5 Oeste 0 -- -- 89
2019-08-30 23:00:00 20.1 5 Oeste 7 Oeste 0 -- -- 89
2019-08-30 22:00:00 20.4 4 Oeste 6 Oeste 0 -- -- 87
2019-08-30 21:00:00 21.5 0 Calma 4 Noroeste 0 -- -- 83
2019-08-30 20:00:00 22.6 0 Calma 5 Noroeste 0 -- -- 80
2019-08-30 19:00:00 23.8 4 Norte 8 Norte 0 -- -- 75
2019-08-30 18:00:00 23.7 5 Nordeste 10 Nordeste 0 -- -- 76
2019-08-30 17:00:00 24.2 6 Nordeste 14 Este 0 -- -- 76
2019-08-30 16:00:00 24.5 10 Este 15 Este 0 -- -- 75
2019-08-30 15:00:00 24 8 Nordeste 15 Este 0 -- -- 78
2019-08-30 14:00:00 24.5 8 Nordeste 13 Este 0 -- -- 77
2019-08-30 13:00:00 23 5 Nordeste 12 Nordeste 0 -- -- 79
2019-08-30 12:00:00 23.4 6 Nordeste 11 Nordeste 0 -- -- 79
2019-08-30 11:00:00 22.7 4 Nordeste 9 Nordeste 0 -- -- 79
2019-08-30 10:00:00 22.3 2 Noroeste 5 Noroeste 0 -- -- 81
2019-08-30 09:00:00 20.6 0 Calma 6 Sudoeste 0 -- -- 88
2019-08-30 08:00:00 19.5 3 Sur 4 Sudoeste 0 -- -- 91
2019-08-30 07:00:00 19.5 2 Sur 3 Sur 0 -- -- 90
2019-08-30 06:00:00 20.1 0 Calma 6 Nordeste 0 -- -- 88
2019-08-30 05:00:00 20.4 3 Este 6 Este 0 -- -- 87
2019-08-30 04:00:00 20.6 2 Nordeste 8 Nordeste 0 -- -- 87
2019-08-30 03:00:00 20.7 0 Calma 12 Este 0 -- -- 87
2019-08-30 02:00:00 20.9 0 Calma 5 Nordeste 0 -- -- 84
2019-08-30 01:00:00 20.9 0 Calma 3 Noroeste 0 -- -- 84
2019-08-30 00:00:00 21 0 Calma 3 Sudoeste 0 -- -- 84
2019-08-29 23:00:00 21.1 0 Calma 8 Nordeste 0 -- -- 84
2019-08-29 22:00:00 21.2 3 Este 8 Nordeste 0 -- -- 84
2019-08-29 21:00:00 21.4 2 Este 11 Este 0 -- -- 83
2019-08-29 20:00:00 21.7 6 Este 14 Nordeste 0 -- -- 81
2019-08-29 19:00:00 22.2 8 Nordeste 17 Nordeste 0 -- -- 77
2019-08-29 18:00:00 24.1 3 Nordeste 16 Nordeste 0 -- -- 74
2019-08-29 17:00:00 23.8 8 Nordeste 13 Norte 0 -- -- 73
2019-08-29 16:00:00 23.7 9 Nordeste 16 Nordeste 0 -- -- 74
2019-08-29 15:00:00 23.9 9 Nordeste 15 Nordeste 0 -- -- 74
2019-08-29 14:00:00 24.1 7 Nordeste 14 Nordeste 0 -- -- 72
2019-08-29 13:00:00 23.7 7 Nordeste 18 Nordeste 0 -- -- 73
2019-08-29 12:00:00 23.8 9 Este 17 Nordeste 0 -- -- 71
2019-08-29 11:00:00 22.9 8 Nordeste 13 Este 0 -- -- 76
2019-08-29 10:00:00 22.6 7 Este 17 Sudeste 0 -- -- 75
2019-08-29 09:00:00 20.8 9 Sudeste 15 Este 0 -- -- 77
2019-08-29 08:00:00 19.7 6 Este 14 Este 0 -- -- 84
2019-08-29 07:00:00 19.9 8 Este 11 Sudeste 0 -- -- 82
2019-08-29 06:00:00 20.2 6 Este 12 Este 0 -- -- 82
2019-08-29 05:00:00 20.4 7 Sudeste 12 Este 0 -- -- 81
2019-08-29 04:00:00 20.5 6 Sudeste 10 Sudeste 0 -- -- 82
2019-08-29 03:00:00 20.6 6 Este 10 Este 0 -- -- 87
2019-08-29 02:00:00 20.8 5 Este 16 Este 0 -- -- 86
2019-08-29 01:00:00 20.9 9 Sudeste 21 Este 0 -- -- 85
2019-08-29 00:00:00 21.1 8 Este 16 Sudeste 0 -- -- 88
2019-08-28 23:00:00 21.1 4 Este 16 Este 0 -- -- 88
2019-08-28 22:00:00 21.2 9 Nordeste 17 Nordeste 0 -- -- 88
2019-08-28 21:00:00 21.5 3 Sudoeste 9 Este 0 -- -- 89
2019-08-28 20:00:00 22.1 0 Calma 7 Noroeste 0 -- -- 86
2019-08-28 19:00:00 22.7 0 Calma 9 Nordeste 0 -- -- 80
2019-08-28 18:00:00 23.7 2 Noroeste 12 Nordeste 0 -- -- 78
2019-08-28 17:00:00 24.2 7 Nordeste 16 Nordeste 0 -- -- 78
2019-08-28 16:00:00 24.9 7 Nordeste 16 Este 0 -- -- 74
2019-08-28 15:00:00 25.1 12 Este 17 Este 0 -- -- 73
2019-08-28 14:00:00 24.8 9 Este 14 Este 0 -- -- 77
2019-08-28 13:00:00 24.4 8 Este 13 Este 0 -- -- 78
2019-08-28 12:00:00 23.8 10 Nordeste 16 Nordeste 0 -- -- 80
2019-08-28 11:00:00 23.7 8 Este 14 Este 0 -- -- 80
2019-08-28 10:00:00 22.7 8 Este 14 Este 0 -- -- 83
2019-08-28 09:00:00 20.3 4 Sudeste 7 Sudeste 0 -- -- 88
2019-08-28 08:00:00 19.7 4 Sur 6 Sudeste 0 -- -- 90
2019-08-28 07:00:00 20 3 Sur 6 Sur 0 -- -- 90
2019-08-28 06:00:00 19.9 4 Sur 5 Sur 0 -- -- 91
2019-08-28 05:00:00 20.1 2 Sudoeste 3 Sudoeste 0 -- -- 92
2019-08-28 04:00:00 20 3 Sudoeste 6 Oeste 0 -- -- 92
2019-08-28 03:00:00 20.2 4 Sudoeste -- -- 0 -- -- 92
2019-08-28 02:00:00 20.1 3 Sudoeste 5 Oeste 0 -- -- 91
2019-08-28 01:00:00 20.6 3 Oeste 4 Oeste 0 -- -- 90
2019-08-28 00:00:00 20.6 2 Sudoeste 8 Este 0 -- -- 90
2019-08-27 23:00:00 20.8 3 Este 6 Este 0 -- -- 89
2019-08-27 22:00:00 21.1 0 Calma 8 Noroeste 0 -- -- 87
2019-08-27 21:00:00 21.6 0 Calma 5 Este 0 -- -- 87
2019-08-27 20:00:00 22 3 Nordeste 6 Nordeste 0 -- -- 87
2019-08-27 19:00:00 22.3 3 Nordeste 8 Nordeste 0 -- -- 85
2019-08-27 18:00:00 22.8 4 Norte 8 Nordeste 0 -- -- 84
2019-08-27 17:00:00 22.1 2 Noroeste 8 Norte 0 -- -- 87
2019-08-27 16:00:00 22.4 3 Norte 11 Nordeste 0 -- -- 85
2019-08-27 15:00:00 23.1 3 Noroeste 11 Norte 0 -- -- 82
2019-08-27 14:00:00 23.3 5 Nordeste 10 Nordeste 0 -- -- 77
2019-08-27 13:00:00 23.2 5 Nordeste 9 Norte 0 -- -- 75
2019-08-27 12:00:00 22.5 4 Nordeste 6 Nordeste 0 -- -- 75
2019-08-27 11:00:00 21.2 0 Calma 6 Sudoeste 0 -- -- 81
2019-08-27 10:00:00 20.1 5 Sudoeste 24 Sudoeste 0 -- -- 83
2019-08-27 09:00:00 19.4 10 Sudoeste 15 Sudoeste 0 -- -- 87
2019-08-27 08:00:00 19 7 Sudoeste 10 Sudoeste 0 -- -- 86
2019-08-27 07:00:00 19 6 Oeste 10 Oeste 0 -- -- 82
2019-08-27 06:00:00 19.1 0 Calma 10 Sudoeste 0 -- -- 79
2019-08-27 05:00:00 18.6 7 Sur 11 Sudoeste 0 -- -- 78
2019-08-27 04:00:00 18.6 4 Noroeste 10 Sur 0 -- -- 78
2019-08-27 03:00:00 18.4 9 Sudoeste 18 Oeste 0 -- -- 80
2019-08-27 02:00:00 18.5 10 Sudoeste 27 Sudoeste 0 -- -- 81
2019-08-27 01:00:00 18.2 6 Sudoeste 32 Sudoeste 0.2 -- -- 84
2019-08-27 00:00:00 18.9 23 Sudeste 40 Sudeste 5.4 -- -- 80
2019-08-26 23:00:00 19.9 14 Sur 28 Sudoeste 2.8 -- -- 87
2019-08-26 22:00:00 20.4 16 Sudoeste 32 Oeste 1.6 -- -- 90
2019-08-26 21:00:00 21.1 6 Oeste 11 Noroeste 0.2 -- -- 92
2019-08-26 20:00:00 21.3 6 Oeste 16 Noroeste 0 -- -- 91
2019-08-26 19:00:00 22.3 3 Noroeste 9 Noroeste 0 -- -- 86
2019-08-26 18:00:00 23.1 4 Oeste 12 Oeste 0 -- -- 85
2019-08-26 17:00:00 23.1 6 Este 18 Este 0 -- -- 84
2019-08-26 16:00:00 24 10 Este 18 Nordeste 0 -- -- 81
2019-08-26 15:00:00 22.8 5 Este 15 Nordeste 0 -- -- 83
2019-08-26 14:00:00 23.8 10 Este 18 Este 0 -- -- 79
2019-08-26 13:00:00 23.1 12 Este 18 Este 0 -- -- 83
2019-08-26 12:00:00 22.9 9 Este 14 Este 0 -- -- 83
2019-08-26 11:00:00 22.2 5 Nordeste 12 Este 0 -- -- 85
2019-08-26 10:00:00 21.8 10 Este 15 Sudeste 0 -- -- 89
2019-08-26 09:00:00 20.2 6 Sudeste 12 Este 0 -- -- 94
2019-08-26 08:00:00 19.6 5 Sudeste 9 Sudeste 0 -- -- 94
2019-08-26 07:00:00 19.7 3 Sudeste 11 Este 0 -- -- 94
2019-08-26 06:00:00 19.6 5 Sudeste 14 Sudeste 0 -- -- 94
2019-08-26 05:00:00 19.5 8 Sudeste 13 Este 0 -- -- 94
2019-08-26 04:00:00 19.7 8 Este 17 Sudeste 0 -- -- 93
2019-08-26 03:00:00 19.7 5 Sudeste 10 Sudeste 0 -- -- 91
2019-08-26 02:00:00 19.8 5 Este 12 Este 0 -- -- 90
2019-08-26 01:00:00 20.1 4 Este 14 Nordeste 0 -- -- 87
2019-08-26 00:00:00 20.1 3 Sudoeste 14 Norte 0 -- -- 90
2019-08-25 23:00:00 20 4 Noroeste 13 Noroeste 0 -- -- 92
2019-08-25 22:00:00 19.7 7 Oeste 15 Oeste 0 -- -- 93
2019-08-25 21:00:00 20.1 4 Noroeste 13 Norte 0 -- -- 91
2019-08-25 20:00:00 20.3 0 Calma 14 Nordeste 0 -- -- 91
2019-08-25 19:00:00 21.2 4 Nordeste 18 Nordeste 0 -- -- 86
2019-08-25 18:00:00 22 3 Oeste 13 Nordeste 0 -- -- 84
2019-08-25 17:00:00 23 7 Nordeste 12 Nordeste 0 -- -- 77
2019-08-25 16:00:00 23.3 4 Nordeste 12 Este 0 -- -- 78
2019-08-25 15:00:00 23 7 Nordeste 11 Este 0 -- -- 80
2019-08-25 14:00:00 22.6 4 Norte 9 Oeste 0 -- -- 80
2019-08-25 13:00:00 21.7 3 Noroeste 9 Noroeste 0 -- -- 84
2019-08-25 12:00:00 21.3 3 Norte 8 Este 0 -- -- 84
2019-08-25 11:00:00 21.3 5 Nordeste 9 Este 0 -- -- 84
2019-08-25 10:00:00 20.2 4 Sudeste 8 Este 0 -- -- 88
2019-08-25 09:00:00 19.4 4 Sudeste 8 Sudeste 0 -- -- 90
2019-08-25 08:00:00 19 3 Sur 6 Sur 0 -- -- 91
2019-08-25 07:00:00 18.8 2 Sudoeste 4 Sudoeste 0 -- -- 91
2019-08-25 06:00:00 18.7 3 Sudoeste 6 Sudoeste 0 -- -- 92
2019-08-25 05:00:00 18.7 3 Sudoeste 10 Sudoeste 0 -- -- 91
2019-08-25 04:00:00 18.9 4 Sudoeste 9 Sudoeste 0 -- -- 89
2019-08-25 03:00:00 19 7 Oeste 12 Sudoeste 0 -- -- 88
2019-08-25 02:00:00 19.1 6 Oeste 13 Oeste 0 -- -- 89
2019-08-25 01:00:00 19.1 10 Oeste 23 Oeste 0 -- -- 91
2019-08-25 00:00:00 19.1 10 Oeste 21 Oeste 0 -- -- 91
2019-08-24 23:00:00 19.1 14 Oeste 22 Oeste 0 -- -- 91
2019-08-24 22:00:00 19.4 6 Oeste 18 Oeste 0 -- -- 90
2019-08-24 21:00:00 20.1 12 Oeste 21 Noroeste 0 -- -- 86
2019-08-24 20:00:00 20.3 15 Noroeste 27 Noroeste 0 -- -- 86
2019-08-24 19:00:00 20.5 17 Noroeste 34 Noroeste 0 -- -- 87
2019-08-24 18:00:00 21.1 13 Noroeste 29 Noroeste 0 -- -- 86
2019-08-24 17:00:00 22.8 12 Noroeste 30 Oeste 0 -- -- 83
2019-08-24 16:00:00 22.3 11 Noroeste 22 Noroeste 0 -- -- 87
2019-08-24 15:00:00 22.4 8 Noroeste 18 Oeste 0 -- -- 87
2019-08-24 14:00:00 23.4 8 Noroeste 18 Sudoeste 0 -- -- 84
2019-08-24 13:00:00 23.8 5 Noroeste 12 Noroeste 0 -- -- 82
2019-08-24 12:00:00 24.1 4 Noroeste 10 Oeste 0 -- -- 74
2019-08-24 11:00:00 24.4 3 Noroeste 8 Noroeste 0 -- -- 73
2019-08-24 10:00:00 24 3 Noroeste 8 Noroeste 0 -- -- 72
2019-08-24 09:00:00 22.3 4 Oeste 12 Noroeste 0 -- -- 77
2019-08-24 08:00:00 22.2 2 Noroeste 7 Noroeste 0 -- -- 70
2019-08-24 07:00:00 22 4 Norte 7 Sur 0 -- -- 69
2019-08-24 06:00:00 22.6 3 Oeste 7 Noroeste 0 -- -- 59
2019-08-24 05:00:00 21.8 2 Noroeste 6 Nordeste 0 -- -- 75
2019-08-24 04:00:00 23.1 3 Oeste 9 Este 0 -- -- 69
2019-08-24 03:00:00 25.3 5 Este 14 Sudoeste 0 -- -- 46
2019-08-24 02:00:00 24.9 9 Sudoeste 13 Sudoeste 0 -- -- 41
2019-08-24 01:00:00 23.5 3 Noroeste 7 Sudeste 0 -- -- 53
2019-08-24 00:00:00 23.7 4 Este 9 Oeste 0 -- -- 60
2019-08-23 23:00:00 24.3 2 Noroeste 3 Noroeste 0 -- -- 58
2019-08-23 22:00:00 24.3 0 Calma 9 Sudoeste 0 -- -- 69
2019-08-23 21:00:00 26.2 2 Oeste 4 Oeste 0 -- -- 64
2019-08-23 20:00:00 28.7 4 Este 14 Este 0 -- -- 58
2019-08-23 19:00:00 29 10 Este 15 Este 0 -- -- 58
2019-08-23 18:00:00 29.1 13 Este 18 Sudeste 0 -- -- 57
2019-08-23 17:00:00 28.8 8 Este 19 Este 0 -- -- 57
2019-08-23 16:00:00 27.4 11 Este 15 Sudeste 0 -- -- 49
2019-08-23 15:00:00 26.3 6 Este 14 Este 0 -- -- 54
2019-08-23 14:00:00 26.6 9 Este 14 Este 0 -- -- 57
2019-08-23 13:00:00 25 9 Este 14 Este 0 -- -- 64
2019-08-23 12:00:00 23.5 10 Este 17 Este 0 -- -- 62
2019-08-23 11:00:00 23.4 7 Este 12 Este 0 -- -- 63
2019-08-23 10:00:00 22.5 4 Este 8 Este 0 -- -- 62
2019-08-23 09:00:00 20 3 Este 5 Este 0 -- -- 69
2019-08-23 08:00:00 17.9 3 Oeste 6 Este 0 -- -- 65
2019-08-23 07:00:00 18.5 3 Sudoeste 7 Sur 0 -- -- 61
2019-08-23 06:00:00 18.4 3 Sudoeste 9 Sur 0 -- -- 60
2019-08-23 05:00:00 18.7 5 Sudoeste 9 Sudoeste 0 -- -- 59
2019-08-23 04:00:00 18.7 0 Calma 4 Sudoeste 0 -- -- 58
2019-08-23 03:00:00 19.4 3 Sur 11 Sur 0 -- -- 56
2019-08-23 02:00:00 19.3 6 Sur 10 Sur 0 -- -- 59
2019-08-23 01:00:00 19.1 5 Sur 7 Sur 0 -- -- 59
2019-08-23 00:00:00 18.9 4 Sudeste 7 Sur 0 -- -- 58
2019-08-22 23:00:00 18.8 4 Sur 6 Sur 0 -- -- 66
2019-08-22 22:00:00 19.4 4 Sur 5 Sur 0 -- -- 83
2019-08-22 21:00:00 21.4 2 Este 6 Este 0 -- -- 74
2019-08-22 20:00:00 23.1 4 Este 8 Nordeste 0 -- -- 70
2019-08-22 19:00:00 23.3 4 Este 7 Este 0 -- -- 75
2019-08-22 18:00:00 23.6 4 Este 9 Este 0 -- -- 75
2019-08-22 17:00:00 22.7 6 Nordeste 11 Nordeste 0 -- -- 77
2019-08-22 16:00:00 22.9 6 Nordeste 11 Norte 0 -- -- 77
2019-08-22 15:00:00 23 6 Nordeste 12 Norte 0 -- -- 77
2019-08-22 14:00:00 22.8 6 Norte 10 Norte 0 -- -- 77
2019-08-22 13:00:00 22.7 4 Norte 11 Noroeste 0 -- -- 76
2019-08-22 12:00:00 22.4 4 Norte 10 Nordeste 0 -- -- 75
2019-08-22 11:00:00 21.9 4 Norte 12 Oeste 0 -- -- 73
2019-08-22 10:00:00 20.6 6 Oeste 12 Sudoeste 0 -- -- 79
2019-08-22 09:00:00 19.1 9 Sudoeste 15 Sudoeste 0 -- -- 82
2019-08-22 08:00:00 17.7 8 Sudoeste 14 Sudoeste 0 -- -- 85
2019-08-22 07:00:00 17.7 7 Sudoeste 17 Sudoeste 0 -- -- 85
2019-08-22 06:00:00 17.9 11 Sudoeste 17 Sudoeste 0 -- -- 85
2019-08-22 05:00:00 18 9 Sudoeste 13 Oeste 0 -- -- 85
2019-08-22 04:00:00 18.3 7 Oeste 11 Oeste 0 -- -- 84
2019-08-22 03:00:00 18.2 7 Oeste 12 Oeste 0 -- -- 83
2019-08-22 02:00:00 18.6 6 Oeste 10 Sudoeste 0 -- -- 81
2019-08-22 01:00:00 18.7 7 Sudoeste 10 Sudoeste 0 -- -- 81
2019-08-22 00:00:00 19 6 Sudoeste 9 Sudoeste 0 -- -- 79
2019-08-21 23:00:00 19.2 3 Sudoeste 7 Noroeste 0 -- -- 77
2019-08-21 22:00:00 20.1 0 Calma 9 Oeste 0 -- -- 74
2019-08-21 21:00:00 20.7 5 Oeste 9 Oeste 0 -- -- 72
2019-08-21 20:00:00 23.3 3 Sudoeste 10 Norte 0 -- -- 64
2019-08-21 19:00:00 23.7 3 Sudoeste 9 Norte 0 -- -- 63
2019-08-21 18:00:00 23.6 3 Oeste 14 Este 0 -- -- 69
2019-08-21 17:00:00 22.7 6 Nordeste 9 Nordeste 0 -- -- 73
2019-08-21 16:00:00 22.5 5 Nordeste 11 Nordeste 0 -- -- 70
2019-08-21 15:00:00 22.8 9 Este 16 Este 0 -- -- 66
2019-08-21 14:00:00 22 6 Nordeste 15 Nordeste 0 -- -- 71
2019-08-21 13:00:00 21.7 5 Nordeste 10 Nordeste 0 -- -- 69
2019-08-21 12:00:00 21 6 Nordeste 9 Norte 0 -- -- 70
2019-08-21 11:00:00 20.6 5 Nordeste 10 Este 0 -- -- 68
2019-08-21 10:00:00 19.9 6 Nordeste 9 Este 0 -- -- 67
2019-08-21 09:00:00 17.7 0 Calma 7 Sudoeste 0 -- -- 74
2019-08-21 08:00:00 16.6 5 Sudoeste 7 Oeste 0 -- -- 78
2019-08-21 07:00:00 16.7 3 Sur 6 Sur 0 -- -- 76
2019-08-21 06:00:00 16.7 4 Sur 9 Sudeste 0 -- -- 77
2019-08-21 05:00:00 17.1 5 Sudeste 12 Sudeste 0 -- -- 75
2019-08-21 04:00:00 17.8 8 Sudeste 16 Este 0 -- -- 74
2019-08-21 03:00:00 18.6 12 Este 23 Nordeste 0 -- -- 76
2019-08-21 02:00:00 18.9 9 Este 22 Este 0 -- -- 75
2019-08-21 01:00:00 18.6 6 Este 22 Este 0 -- -- 74
2019-08-21 00:00:00 18.8 8 Este 18 Este 0 -- -- 73